Time;durP1;ratioP1;P1;durP2;ratioP2;P2;SDS_P1;SDS_P2;PMS_P1;PMS_P2;Temp;Humidity;BMP_temperature;BMP_pressure;BME280_temperature;BME280_humidity;BME280_pressure;Samples;Min_cycle;Max_cycle;Signal;HPM_P1;HPM_P2
2021/05/07 00:01:43;;;;;;;16.13;13.00;;;4.70;99.90;;;;;;5074826;28;20187;-61
2021/05/07 00:04:09;;;;;;;12.47;10.73;;;4.70;99.90;;;;;;5074684;28;20175;-60
2021/05/07 00:06:36;;;;;;;12.37;11.10;;;4.60;99.90;;;;;;5074856;28;20171;-59
2021/05/07 00:09:05;;;;;;;13.93;11.50;;;4.60;99.90;;;;;;5074625;28;20175;-61
2021/05/07 00:11:33;;;;;;;13.87;12.37;;;4.60;99.90;;;;;;5074617;28;20436;-61
2021/05/07 00:13:58;;;;;;;16.67;13.20;;;4.60;99.90;;;;;;5074539;28;20411;-60
2021/05/07 00:16:24;;;;;;;14.60;12.90;;;4.60;99.90;;;;;;5074629;28;20460;-60
2021/05/07 00:18:50;;;;;;;13.77;12.37;;;4.70;99.90;;;;;;5074299;28;20653;-60
2021/05/07 00:21:15;;;;;;;14.77;13.27;;;4.70;99.90;;;;;;5074404;28;20233;-61
2021/05/07 00:23:41;;;;;;;16.03;12.07;;;4.70;99.90;;;;;;5074519;28;20166;-59
2021/05/07 00:26:06;;;;;;;15.80;13.77;;;4.60;99.90;;;;;;5074414;28;20250;-61
2021/05/07 00:28:32;;;;;;;13.97;12.57;;;4.50;99.90;;;;;;5074016;28;20171;-59
2021/05/07 00:30:58;;;;;;;13.00;11.60;;;4.60;99.90;;;;;;5074302;28;20191;-61
2021/05/07 00:33:24;;;;;;;18.13;13.77;;;4.60;99.90;;;;;;5074291;28;20174;-61
2021/05/07 00:35:49;;;;;;;15.10;12.97;;;4.60;99.90;;;;;;5074193;28;20544;-61
2021/05/07 00:38:15;;;;;;;15.30;13.70;;;4.60;99.90;;;;;;5074073;28;20163;-60
2021/05/07 00:40:41;;;;;;;18.53;13.53;;;4.70;99.90;;;;;;5074011;28;20187;-61
2021/05/07 00:43:07;;;;;;;18.60;14.07;;;4.60;99.90;;;;;;5073940;28;20492;-60
2021/05/07 00:45:32;;;;;;;17.57;13.80;;;4.60;99.90;;;;;;5074068;28;20270;-61
2021/05/07 00:48:19;;;;;;;20.00;14.40;;;4.60;99.90;;;;;;5073931;28;20171;-60
2021/05/07 00:50:46;;;;;;;15.63;13.10;;;4.70;99.90;;;;;;5073810;28;20622;-61
2021/05/07 00:53:13;;;;;;;19.50;15.13;;;4.60;99.90;;;;;;5073896;28;20496;-60
2021/05/07 00:55:39;;;;;;;18.40;15.10;;;4.70;99.90;;;;;;5073735;28;20479;-60
2021/05/07 00:58:05;;;;;;;18.17;14.60;;;4.70;99.90;;;;;;5073533;28;20890;-61
2021/05/07 01:00:32;;;;;;;19.40;15.37;;;4.70;99.90;;;;;;5073703;28;20587;-61
2021/05/07 01:02:59;;;;;;;18.73;16.00;;;4.60;99.90;;;;;;5073789;28;20496;-60
2021/05/07 01:05:25;;;;;;;17.40;13.53;;;4.50;99.90;;;;;;5073803;28;20409;-61
2021/05/07 01:07:51;;;;;;;15.93;14.33;;;4.50;99.90;;;;;;5073133;28;20467;-61
2021/05/07 01:10:17;;;;;;;23.00;16.60;;;4.50;99.90;;;;;;5073325;28;20402;-61
2021/05/07 01:12:44;;;;;;;22.47;17.97;;;4.50;99.90;;;;;;5073479;28;20167;-60
2021/05/07 01:15:14;;;;;;;18.90;14.40;;;4.50;99.90;;;;;;5073506;28;20476;-61
2021/05/07 01:17:43;;;;;;;19.03;15.70;;;4.50;99.90;;;;;;5073276;28;20793;-60
2021/05/07 01:20:31;;;;;;;21.90;17.37;;;4.50;99.90;;;;;;5073302;28;20438;-59
2021/05/07 01:23:05;;;;;;;19.47;16.57;;;4.50;99.90;;;;;;5073557;28;20492;-60
2021/05/07 01:25:35;;;;;;;20.00;15.40;;;4.50;99.90;;;;;;5073526;28;20776;-61
2021/05/07 01:28:04;;;;;;;20.13;17.07;;;4.50;99.90;;;;;;5073083;28;20402;-60
2021/05/07 01:30:33;;;;;;;21.20;16.60;;;4.40;99.90;;;;;;5073042;28;20448;-59
2021/05/07 01:32:59;;;;;;;17.63;14.03;;;4.40;99.90;;;;;;5073395;28;20417;-61
2021/05/07 01:35:30;;;;;;;20.17;17.73;;;4.40;99.90;;;;;;5072965;28;20842;-61
2021/05/07 01:37:58;;;;;;;24.47;18.27;;;4.50;99.90;;;;;;5073033;28;20639;-60
2021/05/07 01:40:26;;;;;;;23.73;18.23;;;4.50;99.90;;;;;;5072673;28;20409;-61
2021/05/07 01:42:53;;;;;;;31.37;20.50;;;4.50;99.90;;;;;;5073024;28;20456;-60
2021/05/07 01:45:21;;;;;;;21.87;17.30;;;4.50;99.90;;;;;;5072867;28;20410;-60
2021/05/07 01:47:48;;;;;;;21.67;18.07;;;4.50;99.90;;;;;;5072664;28;20413;-60
2021/05/07 01:50:19;;;;;;;23.40;18.67;;;4.60;99.90;;;;;;5072773;28;20778;-61
2021/05/07 01:52:45;;;;;;;26.10;18.70;;;4.60;99.90;;;;;;5072843;28;20457;-60
2021/05/07 01:55:13;;;;;;;19.33;16.33;;;4.70;99.90;;;;;;5072948;28;20949;-60
2021/05/07 01:57:39;;;;;;;23.77;18.80;;;4.70;99.90;;;;;;5072707;28;20236;-61
2021/05/07 02:00:07;;;;;;;28.00;20.90;;;4.60;99.90;;;;;;5072052;28;20508;-60
2021/05/07 02:02:33;;;;;;;26.40;21.77;;;4.70;99.90;;;;;;5072472;28;20452;-60
2021/05/07 02:04:59;;;;;;;27.23;20.10;;;4.70;99.90;;;;;;5072430;28;20775;-61
2021/05/07 02:07:24;;;;;;;23.73;18.23;;;4.60;99.90;;;;;;5072572;28;20171;-61
2021/05/07 02:09:50;;;;;;;26.27;20.57;;;4.60;99.90;;;;;;5072228;28;20182;-60
2021/05/07 02:12:16;;;;;;;23.70;19.73;;;4.50;99.90;;;;;;5072301;28;20479;-61
2021/05/07 02:14:42;;;;;;;29.97;22.40;;;4.50;99.90;;;;;;5072155;28;20601;-61
2021/05/07 02:17:07;;;;;;;23.00;19.43;;;4.50;99.90;;;;;;5072199;28;20955;-61
2021/05/07 02:19:33;;;;;;;25.50;18.90;;;4.50;99.90;;;;;;5072259;28;20168;-61
2021/05/07 02:21:59;;;;;;;22.43;17.33;;;4.50;99.90;;;;;;5072422;28;20272;-60
2021/05/07 02:24:24;;;;;;;25.80;18.90;;;4.50;99.90;;;;;;5072624;28;20644;-60
2021/05/07 02:26:50;;;;;;;26.67;20.03;;;4.60;99.90;;;;;;5072697;28;20766;-59
2021/05/07 02:29:17;;;;;;;26.27;20.60;;;4.60;99.90;;;;;;5072132;28;20417;-59
2021/05/07 02:31:43;;;;;;;25.33;20.53;;;4.60;99.90;;;;;;5072318;28;20199;-61
2021/05/07 02:34:09;;;;;;;25.40;19.13;;;4.60;99.90;;;;;;5072747;28;20554;-61
2021/05/07 02:36:35;;;;;;;23.77;20.63;;;4.60;99.90;;;;;;5072287;28;20743;-60
2021/05/07 02:39:01;;;;;;;25.20;19.97;;;4.50;99.90;;;;;;5072020;28;20413;-60
2021/05/07 02:41:26;;;;;;;25.27;20.10;;;4.50;99.90;;;;;;5072267;28;20433;-60
2021/05/07 02:43:52;;;;;;;27.90;21.17;;;4.50;99.90;;;;;;5072115;28;20536;-61
2021/05/07 02:46:19;;;;;;;29.00;21.60;;;4.50;99.90;;;;;;5072065;28;20171;-61
2021/05/07 02:48:44;;;;;;;27.57;20.30;;;4.60;99.90;;;;;;5071789;28;20677;-61
2021/05/07 02:51:10;;;;;;;30.97;22.67;;;4.60;99.90;;;;;;5071918;28;20469;-61
2021/05/07 02:53:35;;;;;;;25.70;19.30;;;4.60;99.90;;;;;;5072112;28;20172;-61
2021/05/07 02:56:01;;;;;;;25.93;20.37;;;4.50;99.90;;;;;;5071887;28;20273;-60
2021/05/07 02:58:26;;;;;;;26.90;20.90;;;4.50;99.90;;;;;;5071875;28;20179;-60
2021/05/07 03:00:52;;;;;;;28.00;21.00;;;4.50;99.90;;;;;;5071754;28;20233;-61
2021/05/07 03:03:17;;;;;;;24.53;18.83;;;4.50;99.90;;;;;;5072305;28;20253;-61
2021/05/07 03:05:43;;;;;;;24.03;17.33;;;4.50;99.90;;;;;;5072080;28;20258;-60
2021/05/07 03:08:09;;;;;;;24.70;19.30;;;4.50;99.90;;;;;;5071755;28;20179;-61
2021/05/07 03:10:34;;;;;;;28.37;19.57;;;4.50;99.90;;;;;;5071825;28;20206;-59
2021/05/07 03:13:00;;;;;;;26.33;17.37;;;4.40;99.90;;;;;;5071808;28;20179;-59
2021/05/07 03:15:25;;;;;;;26.60;19.90;;;4.40;99.90;;;;;;5072094;28;20257;-61
2021/05/07 03:17:53;;;;;;;27.80;20.40;;;4.40;99.90;;;;;;5071932;28;20250;-60
2021/05/07 03:20:19;;;;;;;29.27;21.10;;;4.30;99.90;;;;;;5071473;28;20175;-60
2021/05/07 03:22:44;;;;;;;23.87;17.50;;;4.30;99.90;;;;;;5071727;28;20505;-61
2021/05/07 03:25:10;;;;;;;28.83;22.20;;;4.30;99.90;;;;;;5071846;28;20171;-59
2021/05/07 03:27:36;;;;;;;24.67;19.10;;;4.20;99.90;;;;;;5071608;28;20252;-60
2021/05/07 03:30:03;;;;;;;24.70;19.13;;;4.20;99.90;;;;;;5071930;28;20823;-60
2021/05/07 03:32:29;;;;;;;31.20;20.67;;;4.10;99.90;;;;;;5075439;28;20203;-59
2021/05/07 03:34:54;;;;;;;29.03;19.80;;;4.10;99.90;;;;;;5075802;28;20548;-58
2021/05/07 03:37:20;;;;;;;27.27;19.23;;;4.10;99.90;;;;;;5075637;28;20174;-60
2021/05/07 03:39:45;;;;;;;27.50;19.33;;;4.10;99.90;;;;;;5075315;28;20186;-60
2021/05/07 03:42:11;;;;;;;25.33;19.27;;;4.00;99.90;;;;;;5075424;28;20216;-60
2021/05/07 03:44:37;;;;;;;33.53;21.60;;;4.00;99.90;;;;;;5075508;28;20182;-60
2021/05/07 03:47:02;;;;;;;25.53;19.20;;;4.00;99.90;;;;;;5075348;28;20207;-60
2021/05/07 03:49:30;;;;;;;25.53;18.73;;;3.90;99.90;;;;;;5075176;28;20194;-61
2021/05/07 03:51:56;;;;;;;27.93;19.13;;;3.90;99.90;;;;;;5075208;28;20468;-59
2021/05/07 03:54:21;;;;;;;37.20;21.17;;;3.90;99.90;;;;;;5075278;28;20445;-60
2021/05/07 03:56:47;;;;;;;34.47;22.37;;;4.00;99.90;;;;;;5075017;28;20171;-61
2021/05/07 03:59:12;;;;;;;30.83;21.67;;;4.00;99.90;;;;;;5074716;28;20183;-60
2021/05/07 04:01:38;;;;;;;33.90;22.87;;;4.10;99.90;;;;;;5075027;28;20194;-60
2021/05/07 04:04:06;;;;;;;29.30;21.17;;;4.10;99.90;;;;;;5075090;28;20250;-60
2021/05/07 04:06:32;;;;;;;30.40;19.93;;;4.10;99.90;;;;;;5075085;28;20185;-61
2021/05/07 04:09:11;;;;;;;27.37;22.03;;;4.10;99.90;;;;;;5074843;28;20881;-60
2021/05/07 04:14:18;;;;;;;29.33;19.70;;;4.10;99.90;;;;;;5074975;28;20440;-60
2021/05/07 04:16:44;;;;;;;26.23;19.00;;;4.10;99.90;;;;;;5074828;28;20459;-59
2021/05/07 04:19:09;;;;;;;27.23;19.03;;;4.10;99.90;;;;;;5074691;28;20829;-60
2021/05/07 04:21:35;;;;;;;29.53;19.30;;;4.10;99.90;;;;;;5074653;28;20237;-60
2021/05/07 04:24:01;;;;;;;25.77;18.10;;;4.20;99.90;;;;;;5074691;28;20417;-60
2021/05/07 04:26:26;;;;;;;25.40;19.40;;;4.20;99.90;;;;;;5074765;28;20700;-61
2021/05/07 04:28:52;;;;;;;25.43;19.33;;;4.20;99.90;;;;;;5074198;28;20178;-60
2021/05/07 04:31:17;;;;;;;30.60;20.60;;;4.30;99.90;;;;;;5074508;28;20198;-61
2021/05/07 04:33:43;;;;;;;22.30;18.07;;;4.30;99.90;;;;;;5074598;28;20179;-59
2021/05/07 04:36:09;;;;;;;23.77;18.30;;;4.30;99.90;;;;;;5074454;28;20199;-61
2021/05/07 04:38:36;;;;;;;32.03;18.67;;;4.40;99.90;;;;;;5073960;28;20213;-59
2021/05/07 04:41:02;;;;;;;33.63;20.47;;;4.40;99.90;;;;;;5074477;28;20199;-59
2021/05/07 04:43:27;;;;;;;31.10;19.57;;;4.40;99.90;;;;;;5073551;28;20410;-60
2021/05/07 04:45:53;;;;;;;32.50;19.07;;;4.50;99.90;;;;;;5074363;28;20172;-60
2021/05/07 04:48:19;;;;;;;24.57;18.10;;;4.40;99.90;;;;;;5074346;28;20259;-60
2021/05/07 04:50:45;;;;;;;28.63;21.50;;;4.50;99.90;;;;;;5074181;28;20203;-60
2021/05/07 04:53:10;;;;;;;26.77;20.43;;;4.50;99.90;;;;;;5074050;28;20183;-61
2021/05/07 04:55:36;;;;;;;30.37;21.30;;;4.60;99.90;;;;;;5074108;28;20199;-61
2021/05/07 04:58:02;;;;;;;28.30;18.67;;;4.60;99.90;;;;;;5073841;28;20175;-61
2021/05/07 05:00:28;;;;;;;26.50;20.37;;;4.70;99.90;;;;;;5073854;28;20190;-61
2021/05/07 05:02:53;;;;;;;30.50;20.10;;;4.60;99.90;;;;;;5074006;28;20182;-61
2021/05/07 05:05:19;;;;;;;30.93;21.93;;;4.60;99.90;;;;;;5074595;28;20572;-61
2021/05/07 05:07:52;;;;;;;27.13;19.30;;;4.70;99.90;;;;;;5073771;28;20183;-61
2021/05/07 05:10:19;;;;;;;28.63;20.30;;;4.70;99.90;;;;;;5073589;28;20651;-61
2021/05/07 05:12:45;;;;;;;29.70;20.03;;;4.80;99.90;;;;;;5073721;28;20489;-61
2021/05/07 05:15:11;;;;;;;28.83;19.13;;;4.80;99.90;;;;;;5073723;28;20545;-60
2021/05/07 05:17:37;;;;;;;25.53;19.10;;;4.80;99.90;;;;;;5073743;28;20178;-60
2021/05/07 05:20:04;;;;;;;25.80;17.93;;;4.70;99.90;;;;;;5073316;28;20773;-60
2021/05/07 05:22:29;;;;;;;26.80;18.77;;;4.70;99.90;;;;;;5073693;28;20225;-60
2021/05/07 05:24:55;;;;;;;23.50;17.70;;;4.70;99.90;;;;;;5073528;28;20905;-60
2021/05/07 05:27:21;;;;;;;28.13;19.70;;;4.70;99.90;;;;;;5073759;28;20254;-61
2021/05/07 05:29:47;;;;;;;24.07;15.97;;;4.60;99.90;;;;;;5073384;28;20786;-59
2021/05/07 05:32:12;;;;;;;23.67;16.90;;;4.70;99.90;;;;;;5073633;28;20187;-61
2021/05/07 05:34:38;;;;;;;28.80;19.70;;;4.80;99.90;;;;;;5073133;28;20294;-60
2021/05/07 05:37:04;;;;;;;20.50;13.27;;;4.90;99.90;;;;;;5073334;28;20516;-59
2021/05/07 05:39:30;;;;;;;26.97;17.10;;;4.90;99.90;;;;;;5072944;28;20464;-60
2021/05/07 05:41:58;;;;;;;24.63;15.57;;;4.80;99.90;;;;;;5073143;28;20731;-61
2021/05/07 05:44:23;;;;;;;27.93;17.00;;;4.80;99.90;;;;;;5073059;28;20435;-60
2021/05/07 05:46:49;;;;;;;25.53;16.60;;;4.80;99.90;;;;;;5071822;28;20413;-60
2021/05/07 05:49:14;;;;;;;22.57;16.47;;;4.80;99.90;;;;;;5072725;28;20632;-61
2021/05/07 05:51:40;;;;;;;25.27;16.83;;;4.90;99.90;;;;;;5073271;28;20202;-60
2021/05/07 05:54:06;;;;;;;21.80;15.37;;;5.00;99.90;;;;;;5072260;28;20545;-60
2021/05/07 05:56:32;;;;;;;22.53;16.07;;;5.10;99.90;;;;;;5072982;28;20734;-60
2021/05/07 05:58:58;;;;;;;24.67;15.70;;;5.20;99.90;;;;;;5072450;28;20493;-61
2021/05/07 06:01:23;;;;;;;24.63;16.77;;;5.40;99.90;;;;;;5073097;28;20191;-61
2021/05/07 06:03:49;;;;;;;20.50;16.03;;;5.40;99.90;;;;;;5073089;28;20253;-60
2021/05/07 06:06:14;;;;;;;17.87;13.00;;;5.40;99.90;;;;;;5072907;28;20171;-61
2021/05/07 06:08:40;;;;;;;22.97;16.37;;;5.30;99.90;;;;;;5072589;28;20175;-60
2021/05/07 06:11:06;;;;;;;24.87;15.20;;;5.20;99.90;;;;;;5072742;28;20191;-60
2021/05/07 06:13:31;;;;;;;21.60;15.13;;;5.10;99.90;;;;;;5072791;28;20663;-59
2021/05/07 06:15:57;;;;;;;21.30;16.47;;;5.10;99.90;;;;;;5072583;28;20736;-61
2021/05/07 06:18:23;;;;;;;25.20;15.60;;;5.00;99.90;;;;;;5072036;28;20366;-61
2021/05/07 06:20:48;;;;;;;21.20;15.77;;;5.00;99.90;;;;;;5072428;28;20191;-60
2021/05/07 06:23:14;;;;;;;18.17;13.50;;;4.90;99.90;;;;;;5072301;28;20171;-60
2021/05/07 06:25:40;;;;;;;20.50;14.30;;;4.80;99.90;;;;;;5072380;28;20245;-61
2021/05/07 06:28:05;;;;;;;19.57;14.80;;;4.60;99.90;;;;;;5072086;28;20175;-61
2021/05/07 06:30:31;;;;;;;13.40;11.70;;;4.60;99.90;;;;;;5072235;28;20178;-61
2021/05/07 06:32:56;;;;;;;16.53;11.13;;;4.40;99.90;;;;;;5072128;28;20232;-62
2021/05/07 06:35:22;;;;;;;14.80;10.67;;;4.40;99.90;;;;;;5072308;28;20667;-61
2021/05/07 06:37:47;;;;;;;12.73;11.40;;;4.40;99.90;;;;;;5072284;28;20175;-61
2021/05/07 06:40:14;;;;;;;11.83;9.90;;;4.50;99.90;;;;;;5072053;28;20193;-61
2021/05/07 06:42:39;;;;;;;12.17;9.20;;;4.40;99.90;;;;;;5072285;28;20250;-61
2021/05/07 06:45:08;;;;;;;11.70;9.90;;;4.50;99.90;;;;;;5072214;28;20492;-61
2021/05/07 06:47:34;;;;;;;16.10;10.20;;;4.50;99.90;;;;;;5071982;28;20175;-58
2021/05/07 06:49:59;;;;;;;9.13;8.00;;;4.50;99.90;;;;;;5071917;28;20471;-60
2021/05/07 06:52:25;;;;;;;16.37;9.27;;;4.60;99.90;;;;;;5072265;28;20217;-60
2021/05/07 06:54:51;;;;;;;10.07;9.03;;;4.50;99.90;;;;;;5072216;28;20691;-61
2021/05/07 06:57:17;;;;;;;9.10;8.30;;;4.60;99.90;;;;;;5072249;28;20182;-60
2021/05/07 06:59:46;;;;;;;10.60;9.53;;;4.60;99.90;;;;;;5071683;28;20425;-61
2021/05/07 07:02:13;;;;;;;12.37;10.10;;;4.60;99.90;;;;;;5072111;28;20218;-60
2021/05/07 07:04:38;;;;;;;12.30;9.30;;;4.60;99.90;;;;;;5072001;28;20406;-61
2021/05/07 07:07:04;;;;;;;11.80;9.87;;;4.60;99.90;;;;;;5072369;28;20973;-59
2021/05/07 07:09:29;;;;;;;10.47;9.37;;;4.70;99.90;;;;;;5071606;28;20698;-61
2021/05/07 07:11:55;;;;;;;14.27;11.70;;;4.70;99.90;;;;;;5072199;28;20193;-60
2021/05/07 07:14:20;;;;;;;14.50;11.60;;;4.80;99.90;;;;;;5072117;28;20320;-60
2021/05/07 07:16:46;;;;;;;15.63;10.80;;;4.80;99.90;;;;;;5072308;28;20663;-59
2021/05/07 07:19:12;;;;;;;12.47;9.93;;;4.70;99.90;;;;;;5071764;28;20175;-60
2021/05/07 07:21:37;;;;;;;12.60;10.10;;;4.80;99.90;;;;;;5071172;28;20193;-61
2021/05/07 07:24:03;;;;;;;16.20;12.20;;;4.80;99.90;;;;;;5071618;28;20217;-62
2021/05/07 07:26:29;;;;;;;10.13;9.03;;;4.70;99.90;;;;;;5072182;28;20179;-61
2021/05/07 07:28:55;;;;;;;12.80;11.60;;;4.70;99.90;;;;;;5071750;28;21009;-61
2021/05/07 07:31:21;;;;;;;9.87;8.97;;;4.70;99.90;;;;;;5071849;28;20270;-62
2021/05/07 07:33:47;;;;;;;9.93;8.97;;;4.70;99.90;;;;;;5072018;28;20463;-62
2021/05/07 07:36:13;;;;;;;9.57;8.30;;;4.70;99.90;;;;;;5072039;28;20453;-60
2021/05/07 07:38:39;;;;;;;9.60;8.70;;;4.70;99.90;;;;;;5071643;28;20776;-60
2021/05/07 07:41:05;;;;;;;14.13;10.07;;;4.70;99.90;;;;;;5071752;28;20191;-62
2021/05/07 07:43:30;;;;;;;12.27;11.07;;;4.70;99.90;;;;;;5071906;28;20174;-61
2021/05/07 07:45:56;;;;;;;11.47;8.90;;;4.60;99.90;;;;;;5071496;28;20406;-61
2021/05/07 07:48:22;;;;;;;12.57;10.73;;;4.70;99.90;;;;;;5071542;28;20164;-62
2021/05/07 07:50:48;;;;;;;10.57;9.47;;;4.70;99.90;;;;;;5071605;28;20425;-60
2021/05/07 07:53:13;;;;;;;10.20;9.07;;;4.80;99.90;;;;;;5071883;28;20175;-60
2021/05/07 07:55:39;;;;;;;12.17;9.50;;;4.80;99.90;;;;;;5071616;28;20249;-62
2021/05/07 07:58:05;;;;;;;9.97;8.97;;;4.80;99.90;;;;;;5071363;28;20170;-60
2021/05/07 08:00:32;;;;;;;9.50;8.10;;;4.80;99.90;;;;;;5070864;28;20164;-60
2021/05/07 08:02:58;;;;;;;8.00;7.30;;;4.80;99.90;;;;;;5070331;28;20251;-60
2021/05/07 08:05:23;;;;;;;10.40;9.40;;;4.90;99.90;;;;;;5071614;28;20429;-57
2021/05/07 08:07:49;;;;;;;8.80;8.00;;;4.90;99.90;;;;;;5071497;28;20719;-62
2021/05/07 08:10:16;;;;;;;9.70;8.30;;;4.90;99.90;;;;;;5071245;28;20172;-61
2021/05/07 08:12:43;;;;;;;10.40;9.40;;;4.90;99.90;;;;;;5071450;28;20246;-61
2021/05/07 08:15:09;;;;;;;9.57;8.67;;;5.00;99.90;;;;;;5066626;28;20453;-62
2021/05/07 08:17:35;;;;;;;8.40;7.77;;;5.00;99.90;;;;;;5053062;28;20809;-62
2021/05/07 08:20:01;;;;;;;7.73;7.10;;;4.90;99.90;;;;;;5054738;28;20403;-60
2021/05/07 08:22:27;;;;;;;8.47;6.60;;;4.90;99.90;;;;;;5054761;28;20180;-61
2021/05/07 08:24:53;;;;;;;8.27;7.20;;;5.00;99.90;;;;;;5072240;28;20470;-59
2021/05/07 08:27:20;;;;;;;7.80;7.20;;;5.00;99.90;;;;;;5074760;28;20424;-58
2021/05/07 08:29:46;;;;;;;7.77;7.10;;;4.90;99.90;;;;;;5074132;28;20211;-61
2021/05/07 08:32:12;;;;;;;9.60;8.70;;;4.90;99.90;;;;;;5074281;28;20986;-59
2021/05/07 08:34:41;;;;;;;11.23;9.53;;;4.90;99.90;;;;;;5074396;28;20409;-61
2021/05/07 08:37:08;;;;;;;10.30;9.20;;;4.90;99.90;;;;;;5074438;28;20175;-60
2021/05/07 08:39:34;;;;;;;9.70;8.90;;;4.90;99.90;;;;;;5074101;28;20405;-60
2021/05/07 08:41:59;;;;;;;7.27;6.67;;;4.90;99.90;;;;;;5074223;28;20516;-60
2021/05/07 08:44:25;;;;;;;9.43;8.80;;;4.90;99.90;;;;;;5074233;28;20213;-61
2021/05/07 08:46:50;;;;;;;8.60;7.80;;;5.00;99.90;;;;;;5074053;28;20175;-61
2021/05/07 08:49:19;;;;;;;7.30;6.80;;;5.10;99.90;;;;;;5073917;28;20624;-61
2021/05/07 08:51:45;;;;;;;9.40;8.47;;;5.10;99.90;;;;;;5074035;28;20667;-61
2021/05/07 08:54:11;;;;;;;7.97;7.17;;;5.20;99.90;;;;;;5074103;28;20401;-61
2021/05/07 08:56:37;;;;;;;5.33;4.93;;;5.40;99.90;;;;;;5073949;28;20553;-60
2021/05/07 08:59:04;;;;;;;5.97;5.47;;;5.40;99.90;;;;;;5073614;28;20917;-60
2021/05/07 09:01:44;;;;;;;6.80;6.20;;;5.50;99.90;;;;;;5073783;28;20838;-60
2021/05/07 09:04:12;;;;;;;7.83;7.17;;;5.60;99.90;;;;;;5074014;28;20405;-60
2021/05/07 09:06:55;;;;;;;5.77;5.27;;;5.60;99.90;;;;;;5073754;28;20516;-60
2021/05/07 09:09:25;;;;;;;5.83;5.33;;;5.80;99.90;;;;;;5073821;28;20762;-60
2021/05/07 09:11:52;;;;;;;5.87;5.37;;;5.70;99.90;;;;;;5073776;28;20486;-59
2021/05/07 09:14:19;;;;;;;6.60;6.10;;;5.80;99.90;;;;;;5073869;28;20433;-59
2021/05/07 09:16:59;;;;;;;6.30;5.90;;;5.90;99.90;;;;;;5073451;28;20457;-59
2021/05/07 09:19:29;;;;;;;6.93;6.30;;;5.90;99.90;;;;;;5073438;28;20462;-59
2021/05/07 09:21:55;;;;;;;7.27;6.67;;;6.10;99.90;;;;;;5073382;28;20939;-60
2021/05/07 09:24:31;;;;;;;5.70;5.13;;;6.30;99.90;;;;;;5073459;28;20403;-61
2021/05/07 09:26:57;;;;;;;5.33;4.90;;;6.50;99.90;;;;;;5073426;28;20163;-60
2021/05/07 09:29:27;;;;;;;5.47;5.07;;;6.50;99.90;;;;;;5072894;28;20413;-61
2021/05/07 09:31:54;;;;;;;6.37;5.53;;;6.50;99.90;;;;;;5073179;28;20943;-61
2021/05/07 09:34:22;;;;;;;7.03;6.40;;;6.40;99.90;;;;;;5073222;28;20418;-61
2021/05/07 09:36:51;;;;;;;7.23;6.53;;;6.50;99.90;;;;;;5073080;28;20437;-60
2021/05/07 09:39:22;;;;;;;6.73;6.20;;;6.50;99.90;;;;;;5073244;28;20409;-61
2021/05/07 09:41:52;;;;;;;5.20;4.90;;;6.70;99.90;;;;;;5073085;28;20432;-60
2021/05/07 09:44:20;;;;;;;5.30;5.00;;;6.80;99.90;;;;;;5073069;28;20795;-61
2021/05/07 09:46:46;;;;;;;6.27;5.80;;;7.00;99.90;;;;;;5072841;28;20403;-60
2021/05/07 09:49:26;;;;;;;5.60;5.20;;;7.30;99.90;;;;;;5072890;28;20395;-61
2021/05/07 09:51:53;;;;;;;6.67;6.07;;;7.60;99.90;;;;;;5072898;28;20421;-61
2021/05/07 09:54:19;;;;;;;6.37;5.63;;;7.70;99.90;;;;;;5073165;28;20491;-62
2021/05/07 09:56:44;;;;;;;7.90;6.40;;;7.70;99.50;;;;;;5072744;28;20475;-61
2021/05/07 09:59:11;;;;;;;4.63;4.33;;;7.90;99.20;;;;;;5072648;28;20179;-61
2021/05/07 10:01:37;;;;;;;4.30;4.00;;;7.80;98.30;;;;;;5072838;28;20195;-61
2021/05/07 10:04:03;;;;;;;4.90;4.60;;;7.90;97.30;;;;;;5072629;28;20457;-61
2021/05/07 10:06:31;;;;;;;5.57;5.17;;;8.00;97.80;;;;;;5072775;28;20177;-61
2021/05/07 10:08:57;;;;;;;7.40;4.93;;;8.60;99.30;;;;;;5072481;28;20415;-61
2021/05/07 10:11:24;;;;;;;5.10;4.80;;;9.30;98.40;;;;;;5072458;28;20439;-61
2021/05/07 10:13:53;;;;;;;5.70;5.20;;;10.00;97.80;;;;;;5072368;28;20193;-62
2021/05/07 10:16:29;;;;;;;4.97;4.20;;;10.50;97.60;;;;;;5072366;28;20488;-61
2021/05/07 10:19:04;;;;;;;4.70;4.40;;;10.60;93.30;;;;;;5072058;28;20404;-61
2021/05/07 10:21:38;;;;;;;4.90;4.50;;;10.60;92.30;;;;;;5072242;28;20428;-61
2021/05/07 10:24:09;;;;;;;4.60;4.30;;;10.50;92.50;;;;;;5072321;28;20968;-60
2021/05/07 10:26:40;;;;;;;3.97;3.77;;;10.10;89.50;;;;;;5072280;28;20428;-62
2021/05/07 10:29:25;;;;;;;3.97;3.67;;;9.90;91.60;;;;;;5071880;28;20402;-61
2021/05/07 10:31:53;;;;;;;3.20;3.00;;;9.90;93.20;;;;;;5072191;28;20439;-60
2021/05/07 10:34:20;;;;;;;3.70;3.50;;;10.40;95.00;;;;;;5072075;28;20420;-62
2021/05/07 10:36:51;;;;;;;3.43;3.23;;;10.60;92.40;;;;;;5071959;28;20497;-61
2021/05/07 10:39:17;;;;;;;3.63;3.43;;;10.50;90.70;;;;;;5071398;28;20906;-62
2021/05/07 10:41:43;;;;;;;4.30;4.00;;;10.60;92.20;;;;;;5072069;28;20433;-61
2021/05/07 10:44:10;;;;;;;3.87;3.57;;;11.10;94.00;;;;;;5072215;28;20432;-61
2021/05/07 10:46:36;;;;;;;3.13;3.00;;;11.50;92.30;;;;;;5072543;28;20444;-62
2021/05/07 10:49:02;;;;;;;3.97;2.73;;;11.70;91.00;;;;;;5071609;28;20437;-62
2021/05/07 10:51:28;;;;;;;3.33;3.13;;;12.50;91.50;;;;;;5071790;28;20191;-61
2021/05/07 10:54:07;;;;;;;3.50;3.30;;;12.70;90.00;;;;;;5071884;28;20448;-61
2021/05/07 10:56:36;;;;;;;3.13;2.83;;;13.30;91.60;;;;;;5071988;28;20464;-61
2021/05/07 10:59:12;;;;;;;3.23;2.93;;;12.80;81.90;;;;;;5071678;28;20791;-62
2021/05/07 11:01:37;;;;;;;5.83;3.90;;;13.10;86.70;;;;;;5071821;28;20426;-62
2021/05/07 11:04:08;;;;;;;3.40;3.20;;;13.50;89.80;;;;;;5071640;28;20412;-62
2021/05/07 11:06:36;;;;;;;3.00;2.80;;;13.60;84.60;;;;;;5072062;28;20259;-62
2021/05/07 11:09:11;;;;;;;4.40;4.10;;;14.00;89.00;;;;;;5071723;28;20412;-61
2021/05/07 11:11:37;;;;;;;3.83;3.53;;;14.00;83.80;;;;;;5071693;28;20432;-63
2021/05/07 11:14:02;;;;;;;3.37;3.17;;;14.40;86.90;;;;;;5071727;28;20409;-62
2021/05/07 11:16:39;;;;;;;3.40;3.20;;;15.00;83.40;;;;;;5071556;28;20261;-62
2021/05/07 11:19:04;;;;;;;2.93;2.80;;;14.80;76.00;;;;;;5071505;28;20163;-62
2021/05/07 11:21:30;;;;;;;3.40;3.20;;;14.20;73.80;;;;;;5071833;28;20440;-62
2021/05/07 11:23:56;;;;;;;3.23;3.03;;;14.00;75.10;;;;;;5071624;28;20160;-62
2021/05/07 11:26:36;;;;;;;2.90;2.80;;;13.70;75.70;;;;;;5071711;28;20405;-61
2021/05/07 11:29:02;;;;;;;3.33;3.13;;;13.40;74.30;;;;;;5071160;28;20432;-61
2021/05/07 11:31:28;;;;;;;2.70;2.53;;;14.10;83.20;;;;;;5071529;28;20424;-63
2021/05/07 11:33:54;;;;;;;3.23;2.67;;;14.30;70.40;;;;;;5071571;28;20451;-62
2021/05/07 11:36:19;;;;;;;4.57;4.27;;;14.10;68.80;;;;;;5070249;28;20293;-62
2021/05/07 11:38:45;;;;;;;3.50;3.27;;;13.80;69.80;;;;;;5071110;28;20164;-62
2021/05/07 11:41:24;;;;;;;3.47;3.27;;;13.60;75.30;;;;;;5071470;28;20183;-62
2021/05/07 11:43:51;;;;;;;3.30;3.10;;;13.80;75.60;;;;;;5071642;28;20617;-62
2021/05/07 11:46:18;;;;;;;3.53;3.33;;;13.80;72.60;;;;;;5071726;28;20410;-61
2021/05/07 11:48:49;;;;;;;3.60;2.87;;;13.80;70.50;;;;;;5071280;28;20409;-62
2021/05/07 11:51:14;;;;;;;3.90;3.20;;;13.90;72.10;;;;;;5072335;28;20531;-62
2021/05/07 11:53:40;;;;;;;3.33;3.03;;;13.90;71.30;;;;;;5075102;28;20485;-62
2021/05/07 11:56:19;;;;;;;3.33;3.03;;;13.30;67.20;;;;;;5075073;28;20448;-62
2021/05/07 11:58:47;;;;;;;2.80;2.70;;;13.40;76.20;;;;;;5074799;28;20888;-62
2021/05/07 12:01:13;;;;;;;3.23;3.03;;;14.20;78.10;;;;;;5075179;28;20498;-62
2021/05/07 12:03:42;;;;;;;3.40;3.20;;;14.40;70.70;;;;;;5075177;28;20403;-62
2021/05/07 12:06:21;;;;;;;4.23;4.00;;;14.30;71.70;;;;;;5074979;28;20409;-63
2021/05/07 12:08:48;;;;;;;4.00;3.70;;;14.40;68.40;;;;;;5074529;28;20905;-63
2021/05/07 12:11:14;;;;;;;3.73;3.53;;;14.70;71.90;;;;;;5074804;28;20432;-62
2021/05/07 12:13:41;;;;;;;4.83;3.17;;;14.50;66.50;;;;;;5074739;28;20467;-62
2021/05/07 12:16:08;;;;;;;3.93;3.70;;;14.40;68.00;;;;;;5074698;28;20457;-62
2021/05/07 12:18:37;;;;;;;3.80;3.50;;;14.00;63.30;;;;;;5074342;28;20451;-62
2021/05/07 12:21:03;;;;;;;3.90;3.47;;;13.70;64.80;;;;;;5074464;28;20429;-61
2021/05/07 12:23:42;;;;;;;3.50;3.30;;;13.30;65.40;;;;;;5074562;28;20400;-63
2021/05/07 12:26:08;;;;;;;3.83;3.63;;;13.30;70.30;;;;;;5074649;28;20397;-62
2021/05/07 12:28:34;;;;;;;4.43;4.00;;;13.40;67.80;;;;;;5074167;28;20467;-62
2021/05/07 12:31:03;;;;;;;4.00;3.70;;;13.60;68.90;;;;;;5074716;28;20214;-62
2021/05/07 12:33:29;;;;;;;3.10;2.90;;;13.60;64.30;;;;;;5074213;28;20163;-62
2021/05/07 12:35:57;;;;;;;4.30;3.60;;;13.40;63.90;;;;;;5074548;28;20445;-62
2021/05/07 12:38:23;;;;;;;3.40;3.20;;;13.30;61.90;;;;;;5074094;28;20970;-62
2021/05/07 12:40:53;;;;;;;4.53;3.50;;;13.90;68.00;;;;;;5074548;28;20478;-62
2021/05/07 12:43:18;;;;;;;4.07;3.30;;;14.80;64.90;;;;;;5074306;28;20409;-62
2021/05/07 12:45:47;;;;;;;3.50;3.23;;;15.20;68.10;;;;;;5074173;28;20905;-62